createdAt,value
2022-10-04T00:00:38.342Z,10.20
2022-10-04T00:03:28.722Z,10.10
2022-10-04T00:06:24.543Z,10.10
2022-10-04T00:09:23.459Z,10.10
2022-10-04T00:12:24.321Z,10.10
2022-10-04T00:15:39.906Z,10.00
2022-10-04T00:18:40.481Z,10.00
2022-10-04T00:21:52.415Z,10.00
2022-10-04T00:25:02.148Z,10.00
2022-10-04T00:28:21.669Z,10.00
2022-10-04T00:31:07.508Z,10.00
2022-10-04T00:34:09.073Z,10.00
2022-10-04T00:36:55.817Z,9.90
2022-10-04T00:39:44.261Z,10.00
2022-10-04T00:42:58.853Z,10.00
2022-10-04T00:45:52.138Z,9.90
2022-10-04T00:48:52.757Z,9.90
2022-10-04T00:51:47.166Z,9.90
2022-10-04T00:54:42.265Z,9.90
2022-10-04T00:57:32.591Z,9.80
2022-10-04T01:00:22.854Z,9.80
2022-10-04T01:03:18.583Z,9.80
2022-10-04T01:06:10.297Z,9.80
2022-10-04T01:09:03.112Z,9.80
2022-10-04T01:30:10.225Z,9.80
2022-10-04T01:32:56.381Z,9.70
2022-10-04T01:35:42.484Z,9.70
2022-10-04T01:38:28.483Z,9.60
2022-10-04T01:41:18.469Z,9.60
2022-10-04T01:44:06.317Z,9.60
2022-10-04T01:46:56.737Z,9.50
2022-10-04T01:49:45.963Z,9.50
2022-10-04T01:52:43.901Z,9.50
2022-10-04T01:55:35.357Z,9.50
2022-10-04T01:58:28.676Z,9.40
2022-10-04T02:01:26.939Z,9.40
2022-10-04T02:04:24.257Z,9.40
2022-10-04T02:07:15.985Z,9.40
2022-10-04T02:10:06.788Z,9.50
2022-10-04T02:12:55.857Z,9.50
2022-10-04T02:15:42.853Z,9.50
2022-10-04T02:18:46.391Z,9.50
2022-10-04T02:21:37.885Z,9.50
2022-10-04T02:24:33.045Z,9.50
2022-10-04T02:27:34.378Z,9.50
2022-10-04T02:30:22.388Z,9.40
2022-10-04T02:33:08.706Z,9.40
2022-10-04T02:35:54.506Z,9.40
2022-10-04T02:38:54.117Z,9.40
2022-10-04T02:42:01.532Z,9.30
2022-10-04T02:44:56.692Z,9.40
2022-10-04T02:47:51.887Z,9.40
2022-10-04T02:50:48.484Z,9.40
2022-10-04T02:53:47.640Z,9.30
2022-10-04T02:56:35.385Z,9.30
2022-10-04T02:59:21.931Z,9.20
2022-10-04T03:02:28.964Z,9.20
2022-10-04T03:05:17.217Z,9.10
2022-10-04T03:08:05.497Z,9.10
2022-10-04T03:10:51.803Z,9.10
2022-10-04T03:13:39.964Z,9.10
2022-10-04T03:16:26.153Z,9.10
2022-10-04T03:19:13.479Z,9.10
2022-10-04T03:22:03.484Z,9.10
2022-10-04T03:24:56.195Z,9.00
2022-10-04T03:27:43.649Z,9.10
2022-10-04T03:30:32.176Z,9.00
2022-10-04T03:33:20.950Z,9.10
2022-10-04T03:36:07.128Z,9.10
2022-10-04T03:38:56.330Z,9.10
2022-10-04T03:41:42.977Z,9.10
2022-10-04T03:44:29.470Z,9.00
2022-10-04T03:47:22.545Z,8.90
2022-10-04T03:50:28.310Z,8.80
2022-10-04T03:53:40.087Z,8.80
2022-10-04T03:56:33.897Z,8.80
2022-10-04T03:59:20.068Z,8.80
2022-10-04T04:02:45.041Z,8.80
2022-10-04T04:05:45.539Z,8.80
2022-10-04T04:08:37.834Z,8.80
2022-10-04T04:11:28.550Z,8.80
2022-10-04T04:14:23.420Z,8.80
2022-10-04T04:17:30.888Z,8.80
2022-10-04T04:20:35.900Z,8.80
2022-10-04T04:23:39.097Z,8.80
2022-10-04T04:26:56.455Z,8.80
2022-10-04T04:30:04.076Z,8.70
2022-10-04T04:32:54.451Z,8.70
2022-10-04T04:35:40.510Z,8.60
2022-10-04T04:38:27.131Z,8.60
2022-10-04T04:41:14.823Z,8.50
2022-10-04T04:44:03.468Z,8.60
2022-10-04T04:46:56.525Z,8.60
2022-10-04T04:49:42.243Z,8.60
2022-10-04T04:52:30.575Z,8.60
2022-10-04T04:55:24.785Z,8.60
2022-10-04T04:58:22.136Z,8.50
2022-10-04T05:01:29.752Z,8.50
2022-10-04T05:04:24.621Z,8.50
2022-10-04T05:07:20.098Z,8.50
2022-10-04T05:10:21.240Z,8.50
2022-10-04T05:13:10.330Z,8.50
2022-10-04T05:16:00.660Z,8.50
2022-10-04T05:18:46.873Z,8.50
2022-10-04T05:21:38.623Z,8.50
2022-10-04T05:24:58.901Z,8.50
2022-10-04T05:27:46.933Z,8.50
2022-10-04T05:30:56.943Z,8.50
2022-10-04T05:33:49.437Z,8.50
2022-10-04T05:36:37.946Z,8.50
2022-10-04T05:39:43.623Z,8.50
2022-10-04T05:42:39.266Z,8.40
2022-10-04T05:45:29.940Z,8.40
2022-10-04T05:48:26.336Z,8.40
2022-10-04T05:51:23.656Z,8.40
2022-10-04T05:54:10.064Z,8.40
2022-10-04T05:57:05.022Z,8.40
2022-10-04T06:00:14.638Z,8.40
2022-10-04T06:03:15.852Z,8.40
2022-10-04T06:06:08.351Z,8.40
2022-10-04T06:09:09.736Z,8.40
2022-10-04T06:12:26.345Z,8.40
2022-10-04T06:15:31.627Z,8.40
2022-10-04T06:18:27.934Z,8.50
2022-10-04T06:21:45.476Z,8.50
2022-10-04T06:24:37.288Z,8.60
2022-10-04T06:27:41.028Z,8.70
2022-10-04T06:30:29.317Z,8.80
2022-10-04T06:33:18.646Z,8.90
2022-10-04T06:36:58.067Z,9.00
2022-10-04T06:40:01.348Z,9.10
2022-10-04T06:43:11.985Z,9.20
2022-10-04T06:46:00.911Z,9.30
2022-10-04T06:49:23.554Z,9.40
2022-10-04T06:52:32.207Z,9.40
2022-10-04T06:55:30.369Z,9.50
2022-10-04T06:58:45.090Z,9.60
2022-10-04T07:01:33.181Z,9.70
2022-10-04T07:05:08.130Z,9.80
2022-10-04T07:08:31.006Z,9.80
2022-10-04T07:11:25.874Z,9.90
2022-10-04T07:14:25.745Z,10.00
2022-10-04T07:17:17.232Z,10.20
2022-10-04T07:20:05.811Z,10.20
2022-10-04T07:23:31.922Z,10.30
2022-10-04T07:26:49.014Z,10.30
2022-10-04T07:29:42.265Z,10.40
2022-10-04T07:32:32.763Z,10.40
2022-10-04T07:35:32.783Z,10.40
2022-10-04T07:38:26.312Z,10.40
2022-10-04T07:41:20.870Z,10.50
2022-10-04T07:44:28.137Z,10.60
2022-10-04T07:47:29.864Z,10.70
2022-10-04T07:50:36.864Z,10.70
2022-10-04T07:53:34.420Z,10.80
2022-10-04T07:56:38.470Z,10.80
2022-10-04T07:59:38.102Z,11.00
2022-10-04T08:02:31.367Z,11.00
2022-10-04T08:05:22.496Z,11.10
2022-10-04T08:08:08.154Z,11.30
2022-10-04T08:11:07.485Z,11.40
2022-10-04T08:14:11.701Z,11.50
2022-10-04T08:17:18.927Z,11.60
2022-10-04T08:20:19.336Z,11.70
2022-10-04T08:23:42.450Z,11.80
2022-10-04T08:26:39.479Z,11.90
2022-10-04T08:29:47.305Z,12.00
2022-10-04T08:32:41.747Z,12.20
2022-10-04T08:35:36.415Z,12.40
2022-10-04T08:38:27.871Z,12.50
2022-10-04T08:41:44.025Z,12.70
2022-10-04T08:44:51.206Z,12.90
2022-10-04T08:48:10.622Z,13.00
2022-10-04T08:51:13.079Z,13.20
2022-10-04T08:54:29.780Z,13.50
2022-10-04T08:57:51.207Z,13.70
2022-10-04T09:00:56.738Z,13.80
2022-10-04T09:04:23.967Z,14.00
2022-10-04T09:07:40.214Z,14.20
2022-10-04T09:10:45.087Z,14.30
2022-10-04T09:13:31.275Z,14.50
2022-10-04T09:16:19.156Z,14.50
2022-10-04T09:19:07.582Z,14.70
2022-10-04T09:21:56.304Z,14.80
2022-10-04T09:24:55.693Z,14.90
2022-10-04T09:28:09.930Z,14.90
2022-10-04T09:31:11.170Z,15.10
2022-10-04T09:34:14.840Z,15.30
2022-10-04T09:37:15.635Z,15.40
2022-10-04T09:40:38.627Z,15.60
2022-10-04T09:43:47.224Z,15.70
2022-10-04T09:47:12.263Z,15.90
2022-10-04T09:50:55.189Z,16.20
2022-10-04T09:53:46.237Z,16.50
2022-10-04T09:57:01.314Z,16.60
2022-10-04T09:59:47.768Z,16.70
2022-10-04T10:02:55.492Z,16.80
2022-10-04T10:06:06.024Z,16.90
2022-10-04T10:09:18.938Z,17.10
2022-10-04T10:12:45.696Z,17.20
2022-10-04T10:15:49.183Z,17.30
2022-10-04T10:19:13.030Z,17.40
2022-10-04T10:22:18.991Z,17.40
2022-10-04T10:25:30.872Z,17.70
2022-10-04T10:28:38.215Z,17.80
2022-10-04T10:31:24.109Z,17.80
2022-10-04T10:34:46.306Z,17.90
2022-10-04T10:38:04.451Z,18.10
2022-10-04T10:41:28.519Z,18.30
2022-10-04T10:44:26.945Z,18.60
2022-10-04T10:47:18.844Z,18.80
2022-10-04T10:50:59.111Z,18.90
2022-10-04T10:54:05.235Z,19.00
2022-10-04T10:57:09.139Z,19.20
2022-10-04T11:00:18.519Z,19.30
2022-10-04T11:03:32.177Z,19.40
2022-10-04T11:06:45.194Z,19.40
2022-10-04T11:09:36.619Z,19.40
2022-10-04T11:12:59.128Z,19.60
2022-10-04T11:16:25.042Z,19.70
2022-10-04T11:19:10.900Z,20.00
2022-10-04T11:22:38.314Z,20.10
2022-10-04T11:25:55.065Z,20.30
2022-10-04T11:29:10.192Z,20.50
2022-10-04T11:32:02.174Z,20.80
2022-10-04T11:34:50.838Z,21.10
2022-10-04T11:37:44.051Z,21.60
2022-10-04T11:40:43.250Z,22.10
2022-10-04T11:43:38.092Z,22.60
2022-10-04T11:47:10.889Z,23.40
2022-10-04T11:50:10.343Z,24.30
2022-10-04T11:53:33.541Z,26.10
2022-10-04T11:56:56.391Z,28.10
2022-10-04T11:59:52.514Z,30.20
2022-10-04T12:03:00.314Z,31.40
2022-10-04T12:06:03.856Z,31.90
2022-10-04T12:09:04.974Z,31.80
2022-10-04T12:12:30.170Z,31.70
2022-10-04T12:15:38.497Z,31.60
2022-10-04T12:18:33.217Z,31.40
2022-10-04T12:21:43.541Z,31.20
2022-10-04T12:25:09.131Z,31.00
2022-10-04T12:28:11.708Z,30.30
2022-10-04T12:31:08.143Z,29.10
2022-10-04T12:34:14.846Z,28.50
2022-10-04T12:37:03.478Z,28.20
2022-10-04T12:40:29.059Z,28.20
2022-10-04T12:43:34.324Z,28.10
2022-10-04T12:46:29.821Z,27.70
2022-10-04T12:49:25.821Z,27.20
2022-10-04T12:52:27.804Z,26.60
2022-10-04T12:55:49.051Z,25.90
2022-10-04T12:58:49.733Z,25.40
2022-10-04T13:01:47.364Z,24.80
2022-10-04T13:04:42.079Z,24.50
2022-10-04T13:08:05.781Z,24.20
2022-10-04T13:11:20.634Z,24.00
2022-10-04T13:14:25.813Z,23.80
2022-10-04T13:17:35.950Z,23.60
2022-10-04T13:20:43.429Z,23.60
2022-10-04T13:23:51.099Z,23.50
2022-10-04T13:26:42.695Z,23.30
2022-10-04T13:29:44.105Z,23.20
2022-10-04T13:32:36.578Z,23.10
2022-10-04T13:35:37.020Z,23.30
2022-10-04T13:38:28.726Z,23.30
2022-10-04T13:41:27.060Z,23.30
2022-10-04T13:44:24.385Z,23.30
2022-10-04T13:47:34.272Z,23.20
2022-10-04T13:50:43.230Z,23.20
2022-10-04T13:53:54.385Z,23.10
2022-10-04T13:57:09.973Z,23.00
2022-10-04T14:00:14.488Z,22.90
2022-10-04T14:03:31.433Z,22.90
2022-10-04T14:06:38.549Z,23.20
2022-10-04T14:09:36.767Z,23.40
2022-10-04T14:12:34.492Z,23.70
2022-10-04T14:15:45.055Z,23.80
2022-10-04T14:18:48.899Z,23.90
2022-10-04T14:22:03.806Z,23.80
2022-10-04T14:25:01.611Z,23.80
2022-10-04T14:28:26.226Z,23.70
2022-10-04T14:31:20.133Z,23.50
2022-10-04T14:34:25.661Z,23.30
2022-10-04T14:37:37.248Z,23.00
2022-10-04T14:40:44.604Z,22.80
2022-10-04T14:43:42.124Z,22.70
2022-10-04T14:46:50.953Z,22.60
2022-10-04T14:50:00.766Z,22.40
2022-10-04T14:52:49.649Z,22.20
2022-10-04T14:55:54.132Z,21.90
2022-10-04T14:59:04.429Z,21.70
2022-10-04T15:02:30.214Z,21.60
2022-10-04T15:05:44.120Z,21.40
2022-10-04T15:08:53.501Z,21.20
2022-10-04T15:12:21.690Z,21.10
2022-10-04T15:15:05.379Z,21.00
2022-10-04T15:17:51.032Z,20.80
2022-10-04T15:20:58.814Z,20.60
2022-10-04T15:23:53.173Z,20.50
2022-10-04T15:26:56.470Z,20.50
2022-10-04T15:29:47.819Z,20.50
2022-10-04T15:33:23.093Z,20.40
2022-10-04T15:36:46.818Z,20.30
2022-10-04T15:39:47.613Z,20.30
2022-10-04T15:42:35.893Z,20.30
2022-10-04T15:45:55.641Z,20.20
2022-10-04T15:48:51.554Z,20.10
2022-10-04T15:52:08.838Z,20.20
2022-10-04T15:55:25.309Z,20.10
2022-10-04T15:58:52.909Z,20.10
2022-10-04T16:01:55.154Z,20.10
2022-10-04T16:05:05.770Z,20.00
2022-10-04T16:08:17.505Z,19.90
2022-10-04T16:11:29.943Z,19.80
2022-10-04T16:14:36.377Z,19.80
2022-10-04T16:17:21.856Z,19.60
2022-10-04T16:20:19.943Z,19.50
2022-10-04T16:23:25.977Z,19.40
2022-10-04T16:26:34.593Z,19.30
2022-10-04T16:29:38.458Z,19.20
2022-10-04T16:33:00.039Z,19.10
2022-10-04T16:36:08.620Z,18.90
2022-10-04T16:39:17.763Z,18.70
2022-10-04T16:42:06.509Z,18.60
2022-10-04T16:45:07.269Z,18.40
2022-10-04T16:48:18.142Z,18.30
2022-10-04T16:51:19.065Z,18.20
2022-10-04T16:54:38.965Z,18.00
2022-10-04T16:57:27.461Z,17.90
2022-10-04T17:00:35.192Z,17.70
2022-10-04T17:03:32.910Z,17.60
2022-10-04T17:06:31.373Z,17.50
2022-10-04T17:09:32.278Z,17.40
2022-10-04T17:12:28.921Z,17.30
2022-10-04T17:15:14.731Z,17.20
2022-10-04T17:18:08.862Z,17.00
2022-10-04T17:21:00.888Z,16.80
2022-10-04T17:24:03.392Z,16.70
2022-10-04T17:26:55.705Z,16.50
2022-10-04T17:29:53.835Z,16.40
2022-10-04T17:32:57.584Z,16.30
2022-10-04T17:35:56.308Z,16.20
2022-10-04T17:38:49.174Z,16.20
2022-10-04T17:41:49.876Z,16.20
2022-10-04T17:44:57.093Z,16.10
2022-10-04T17:48:29.859Z,16.10
2022-10-04T17:52:05.112Z,16.10
2022-10-04T17:55:13.577Z,16.00
2022-10-04T17:58:13.106Z,15.90
2022-10-04T18:01:34.223Z,15.70
2022-10-04T18:04:28.347Z,15.70
2022-10-04T18:07:32.058Z,15.70
2022-10-04T18:10:31.167Z,15.60
2022-10-04T18:13:47.756Z,15.60
2022-10-04T18:16:55.962Z,15.60
2022-10-04T18:20:07.851Z,15.60
2022-10-04T18:23:17.587Z,15.50
2022-10-04T18:26:10.892Z,15.40
2022-10-04T18:28:59.692Z,15.40
2022-10-04T18:31:45.750Z,15.10
2022-10-04T18:34:32.071Z,14.80
2022-10-04T18:37:32.021Z,14.50
2022-10-04T18:40:29.216Z,14.40
2022-10-04T18:43:41.806Z,14.20
2022-10-04T18:46:39.792Z,14.10
2022-10-04T18:49:43.692Z,14.10
2022-10-04T18:52:55.685Z,14.20
2022-10-04T18:55:59.822Z,14.00
2022-10-04T18:59:20.135Z,13.90
2022-10-04T19:02:12.624Z,13.90
2022-10-04T19:05:18.125Z,14.10
2022-10-04T19:08:29.315Z,14.20
2022-10-04T19:11:33.158Z,14.30
2022-10-04T19:14:44.707Z,14.40
2022-10-04T19:17:39.158Z,14.40
2022-10-04T19:20:52.042Z,14.40
2022-10-04T19:24:11.783Z,14.10
2022-10-04T19:27:10.319Z,14.00
2022-10-04T19:30:12.393Z,14.00
2022-10-04T19:33:16.945Z,13.70
2022-10-04T19:36:13.312Z,13.80
2022-10-04T19:39:15.232Z,14.00
2022-10-04T19:42:15.978Z,14.20
2022-10-04T19:45:26.595Z,14.30
2022-10-04T19:48:26.040Z,14.40
2022-10-04T19:51:40.069Z,14.40
2022-10-04T19:54:35.691Z,14.40
2022-10-04T19:57:38.577Z,14.40
2022-10-04T20:00:24.494Z,14.30
2022-10-04T20:03:14.937Z,14.30
2022-10-04T20:06:01.272Z,14.20
2022-10-04T20:08:51.779Z,14.20
2022-10-04T20:11:37.501Z,14.20
2022-10-04T20:14:23.405Z,14.10
2022-10-04T20:17:09.227Z,14.10
2022-10-04T20:19:56.734Z,14.10
2022-10-04T20:22:50.973Z,13.90
2022-10-04T20:25:44.450Z,13.70
2022-10-04T20:28:38.954Z,13.60
2022-10-04T20:31:28.237Z,13.60
2022-10-04T20:34:35.562Z,13.60
2022-10-04T20:37:21.757Z,13.50
2022-10-04T20:40:11.553Z,13.30
2022-10-04T20:43:15.802Z,13.10
2022-10-04T20:46:01.722Z,13.00
2022-10-04T20:48:48.387Z,12.90
2022-10-04T20:51:34.113Z,13.00
2022-10-04T20:54:21.160Z,13.20
2022-10-04T20:57:12.879Z,13.30
2022-10-04T20:59:59.464Z,13.30
2022-10-04T21:02:45.593Z,13.40
2022-10-04T21:05:31.804Z,13.40
2022-10-04T21:08:23.199Z,13.40
2022-10-04T21:11:19.319Z,13.30
2022-10-04T21:14:26.029Z,13.10
2022-10-04T21:17:29.817Z,13.10
2022-10-04T21:20:52.141Z,12.90
2022-10-04T21:23:41.240Z,12.60
2022-10-04T21:26:27.905Z,12.60
2022-10-04T21:29:13.884Z,12.60
2022-10-04T21:31:59.983Z,12.70
2022-10-04T21:34:53.452Z,12.70
2022-10-04T21:37:39.934Z,12.70
2022-10-04T21:40:26.976Z,12.70
2022-10-04T21:43:12.383Z,12.90
2022-10-04T21:45:58.301Z,13.10
2022-10-04T21:48:43.922Z,13.10
2022-10-04T21:51:33.692Z,13.20
2022-10-04T21:54:19.894Z,13.30
2022-10-04T21:57:05.424Z,13.20
2022-10-04T21:59:50.926Z,13.30
2022-10-04T22:02:36.785Z,13.30
2022-10-04T22:05:22.482Z,13.30
2022-10-04T22:08:12.019Z,13.20
2022-10-04T22:11:00.340Z,12.90
2022-10-04T22:13:48.989Z,12.70
2022-10-04T22:16:34.452Z,12.70
2022-10-04T22:19:20.168Z,12.80
2022-10-04T22:22:12.675Z,12.80
2022-10-04T22:24:59.030Z,12.70
2022-10-04T22:27:45.321Z,12.60
2022-10-04T22:30:36.304Z,12.50
2022-10-04T22:33:32.240Z,12.40
2022-10-04T22:36:30.195Z,12.30
2022-10-04T22:39:20.426Z,12.40
2022-10-04T22:42:05.944Z,12.30
2022-10-04T22:44:51.422Z,12.30
2022-10-04T22:47:37.018Z,12.50
2022-10-04T22:50:35.140Z,12.60
2022-10-04T22:53:22.399Z,12.80
2022-10-04T22:56:09.508Z,12.80
2022-10-04T22:58:55.415Z,12.90
2022-10-04T23:01:42.034Z,12.80
2022-10-04T23:04:27.748Z,12.80
2022-10-04T23:07:14.146Z,12.70
2022-10-04T23:09:59.878Z,12.70
2022-10-04T23:12:46.805Z,12.70
2022-10-04T23:15:32.596Z,12.60
2022-10-04T23:18:19.161Z,12.60
2022-10-04T23:21:19.995Z,12.50
2022-10-04T23:24:19.221Z,12.50
2022-10-04T23:27:12.420Z,12.50
2022-10-04T23:30:02.837Z,12.40
2022-10-04T23:32:54.277Z,12.40
2022-10-04T23:35:39.589Z,12.40
2022-10-04T23:38:25.939Z,12.40
2022-10-04T23:41:12.611Z,12.40
2022-10-04T23:43:58.091Z,12.30
2022-10-04T23:46:44.342Z,12.30
2022-10-04T23:49:30.349Z,12.30
2022-10-04T23:52:20.335Z,12.30
2022-10-04T23:55:18.047Z,12.30
2022-10-04T23:58:32.169Z,12.30
